Time;durP1;ratioP1;P1;durP2;ratioP2;P2;SDS_P1;SDS_P2;PMS_P1;PMS_P2;Temp;Humidity;BMP_temperature;BMP_pressure;BME280_temperature;BME280_humidity;BME280_pressure;Samples;Min_cycle;Max_cycle;Signal;HPM_P1;HPM_P2
2021/05/11 00:00:28;;;;;;;2.75;0.70;;;;;;;13.02;100.00;95074.72;1032129;28;20026;-48
2021/05/11 00:00:59;;;;;;;2.20;0.80;;;;;;;12.98;100.00;95078.59;1036151;28;20018;-51
2021/05/11 00:01:30;;;;;;;1.27;0.73;;;;;;;12.98;100.00;95083.06;1028131;28;20504;-49
2021/05/11 00:02:01;;;;;;;2.80;0.75;;;;;;;13.03;100.00;95081.66;1031966;28;20049;-52
2021/05/11 00:02:32;;;;;;;1.63;0.70;;;;;;;13.01;100.00;95078.34;1027771;28;20018;-50
2021/05/11 00:03:03;;;;;;;1.10;0.73;;;;;;;13.03;100.00;95079.00;1028124;28;20026;-52
2021/05/11 00:03:35;;;;;;;1.85;0.73;;;;;;;12.99;100.00;95076.84;1032091;28;20052;-52
2021/05/11 00:04:07;;;;;;;0.95;0.55;;;;;;;12.95;100.00;95076.28;1036097;28;20108;-51
2021/05/11 00:04:38;;;;;;;2.10;0.65;;;;;;;12.91;100.00;95066.19;1028164;28;20100;-51
2021/05/11 00:05:09;;;;;;;3.00;0.75;;;;;;;12.87;100.00;95064.81;1024159;29;20019;-49
2021/05/11 00:05:40;;;;;;;1.23;0.70;;;;;;;12.84;100.00;95063.31;1024315;29;20094;-49
2021/05/11 00:06:12;;;;;;;1.60;0.70;;;;;;;12.84;100.00;95061.50;1024024;29;20023;-48
2021/05/11 00:06:43;;;;;;;3.20;1.77;;;;;;;12.85;100.00;95064.97;1032245;28;20161;-49
2021/05/11 00:07:13;;;;;;;1.33;0.75;;;;;;;12.91;100.00;95066.19;1028161;28;20505;-49
2021/05/11 00:07:44;;;;;;;1.73;0.80;;;;;;;12.88;100.00;95075.19;1032127;28;20508;-50
2021/05/11 00:08:15;;;;;;;1.17;0.70;;;;;;;12.95;100.00;95078.06;1032109;28;20101;-50
2021/05/11 00:08:46;;;;;;;1.70;0.60;;;;;;;12.94;100.00;95077.25;1032093;28;20050;-50
2021/05/11 00:09:17;;;;;;;1.33;0.73;;;;;;;12.95;100.00;95078.91;1036244;28;20026;-49
2021/05/11 00:09:48;;;;;;;2.03;0.80;;;;;;;12.98;100.00;95077.78;1032226;28;20026;-49
2021/05/11 00:10:19;;;;;;;2.53;0.80;;;;;;;13.00;100.00;95081.91;1031896;28;20022;-49
2021/05/11 00:10:50;;;;;;;2.60;0.93;;;;;;;13.01;100.00;95088.03;1032216;28;20499;-49
2021/05/11 00:11:21;;;;;;;2.33;0.60;;;;;;;13.00;100.00;95087.19;1032001;28;20080;-50
2021/05/11 00:11:52;;;;;;;1.48;0.63;;;;;;;13.03;100.00;95092.16;1032107;28;20080;-51
2021/05/11 00:12:23;;;;;;;0.93;0.55;;;;;;;13.02;100.00;95097.56;1032108;28;20092;-49
2021/05/11 00:12:55;;;;;;;2.00;0.73;;;;;;;13.01;100.00;95099.38;1024087;29;20082;-51
2021/05/11 00:13:25;;;;;;;1.25;0.80;;;;;;;12.98;100.00;95102.28;1036022;28;20060;-50
2021/05/11 00:13:56;;;;;;;1.30;0.60;;;;;;;13.03;100.00;95097.41;1031983;28;20339;-51
2021/05/11 00:14:27;;;;;;;1.85;0.70;;;;;;;13.00;100.00;95095.06;1032076;28;20024;-50
2021/05/11 00:14:58;;;;;;;2.28;0.60;;;;;;;12.99;100.00;95079.47;1028078;28;20014;-50
2021/05/11 00:15:29;;;;;;;1.98;0.70;;;;;;;12.99;100.00;95084.72;1024104;29;20105;-50
2021/05/11 00:16:00;;;;;;;1.73;0.80;;;;;;;12.98;100.00;95075.16;1032125;28;20471;-48
2021/05/11 00:16:31;;;;;;;1.13;0.70;;;;;;;12.85;100.00;95072.84;1032017;28;20085;-49
2021/05/11 00:17:02;;;;;;;1.80;0.70;;;;;;;12.93;100.00;95080.00;1032101;28;20023;-48
2021/05/11 00:17:34;;;;;;;1.05;0.60;;;;;;;12.96;100.00;95074.47;1031996;28;20400;-48
2021/05/11 00:18:05;;;;;;;1.33;0.60;;;;;;;12.98;100.00;95069.91;1027996;28;20508;-47
2021/05/11 00:18:36;;;;;;;2.08;1.17;;;;;;;12.95;100.00;95073.66;1028025;28;20109;-49
2021/05/11 00:19:09;;;;;;;1.60;0.63;;;;;;;12.94;100.00;95077.25;1027959;28;20460;-48
2021/05/11 00:19:41;;;;;;;1.20;0.63;;;;;;;12.95;100.00;95083.31;1028055;28;20077;-48
2021/05/11 00:20:13;;;;;;;2.03;0.75;;;;;;;12.94;100.00;95085.13;1028125;28;20049;-50
2021/05/11 00:20:45;;;;;;;1.02;0.52;;;;;;;12.92;100.00;95087.09;1031990;28;20018;-48
2021/05/11 00:21:16;;;;;;;1.95;0.80;;;;;;;12.93;100.00;95090.53;1027885;28;20019;-50
2021/05/11 00:21:47;;;;;;;2.08;0.70;;;;;;;12.91;100.00;95074.91;1028053;28;20026;-51
2021/05/11 00:22:17;;;;;;;2.13;0.50;;;;;;;12.92;100.00;95073.94;1032072;28;20023;-48
2021/05/11 00:22:49;;;;;;;2.15;0.50;;;;;;;12.93;100.00;95067.72;1032000;28;20030;-49
2021/05/11 00:23:20;;;;;;;1.10;0.70;;;;;;;12.99;100.00;95071.56;1031989;28;20520;-49
2021/05/11 00:23:50;;;;;;;1.58;0.70;;;;;;;12.96;100.00;95074.47;1031897;28;20018;-49
2021/05/11 00:24:21;;;;;;;1.80;0.70;;;;;;;12.85;100.00;95075.47;1032036;28;20057;-49
2021/05/11 00:24:52;;;;;;;0.90;0.60;;;;;;;12.87;100.00;95070.91;1031940;28;20018;-50
2021/05/11 00:25:23;;;;;;;2.38;0.75;;;;;;;12.84;100.00;95072.03;1028055;28;20019;-49
2021/05/11 00:25:55;;;;;;;1.00;0.52;;;;;;;12.83;100.00;95070.34;1031744;28;20022;-50
2021/05/11 00:26:27;;;;;;;0.95;0.60;;;;;;;12.81;100.00;95072.31;1032147;28;20026;-50
2021/05/11 00:26:58;;;;;;;1.27;0.65;;;;;;;12.82;100.00;95071.34;1027906;28;20122;-48
2021/05/11 00:27:28;;;;;;;1.13;0.70;;;;;;;12.82;100.00;95068.72;1028108;28;20069;-47
2021/05/11 00:27:59;;;;;;;1.75;0.60;;;;;;;12.81;100.00;95071.47;1028070;28;20115;-48
2021/05/11 00:28:30;;;;;;;0.82;0.60;;;;;;;12.82;100.00;95070.53;1032121;28;20022;-51
2021/05/11 00:29:01;;;;;;;1.58;0.75;;;;;;;12.80;100.00;95069.81;1032043;28;20520;-48
2021/05/11 00:29:32;;;;;;;1.60;0.60;;;;;;;12.76;100.00;95071.06;1032021;28;20046;-50
2021/05/11 00:30:04;;;;;;;2.25;0.70;;;;;;;12.73;100.00;95074.84;1036139;28;20018;-49
2021/05/11 00:30:35;;;;;;;1.10;0.70;;;;;;;12.72;100.00;95077.59;1036054;28;20032;-49
2021/05/11 00:31:06;;;;;;;1.63;0.80;;;;;;;12.72;100.00;95072.34;1035951;28;20108;-49
2021/05/11 00:31:37;;;;;;;1.35;0.70;;;;;;;12.71;100.00;95071.53;1031981;28;20414;-49
2021/05/11 00:32:08;;;;;;;0.70;0.70;;;;;;;12.68;100.00;95068.34;1031978;28;20026;-47
2021/05/11 00:32:39;;;;;;;2.38;0.95;;;;;;;12.71;100.00;95070.69;1031980;28;20030;-49
2021/05/11 00:33:09;;;;;;;1.45;0.88;;;;;;;12.71;100.00;95060.19;1027863;28;20018;-49
2021/05/11 00:33:41;;;;;;;1.48;0.88;;;;;;;12.69;100.00;95052.44;1023786;28;20051;-51
2021/05/11 00:34:12;;;;;;;2.63;1.00;;;;;;;12.71;100.00;95049.66;1036140;28;20519;-48
2021/05/11 00:34:43;;;;;;;1.30;0.60;;;;;;;12.72;100.00;95051.31;1032040;28;20018;-49
2021/05/11 00:35:13;;;;;;;1.33;0.60;;;;;;;12.72;100.00;95057.38;1032141;28;20033;-49
2021/05/11 00:35:44;;;;;;;1.10;0.68;;;;;;;12.70;100.00;95063.78;1027991;28;20025;-49
2021/05/11 00:36:16;;;;;;;2.03;0.70;;;;;;;12.70;100.00;95059.34;1028252;28;20523;-49
2021/05/11 00:36:47;;;;;;;2.13;0.80;;;;;;;12.78;100.00;95071.75;1036128;28;20045;-50
2021/05/11 00:37:18;;;;;;;1.38;0.60;;;;;;;12.72;100.00;95067.09;1032026;28;20034;-48
2021/05/11 00:37:49;;;;;;;1.13;0.80;;;;;;;12.70;100.00;95074.28;1036019;28;20026;-51
2021/05/11 00:38:20;;;;;;;0.73;0.60;;;;;;;12.68;100.00;95084.13;1032029;28;20054;-48
2021/05/11 00:38:51;;;;;;;2.40;0.82;;;;;;;12.66;100.00;95078.19;1028061;28;20117;-47
2021/05/11 00:39:22;;;;;;;1.15;0.60;;;;;;;12.52;100.00;95061.03;1023871;29;20077;-49
2021/05/11 00:39:54;;;;;;;1.20;0.65;;;;;;;12.60;100.00;95080.38;1031975;28;20475;-49
2021/05/11 00:40:25;;;;;;;1.75;0.70;;;;;;;12.59;100.00;95080.53;1027967;28;20022;-48
2021/05/11 00:40:56;;;;;;;1.95;0.70;;;;;;;12.62;100.00;95077.63;1027922;28;20023;-49
2021/05/11 00:41:27;;;;;;;1.52;0.75;;;;;;;12.59;100.00;95081.38;1031980;28;20030;-48
2021/05/11 00:41:58;;;;;;;0.80;0.60;;;;;;;12.57;100.00;95074.59;1027833;28;20536;-49
2021/05/11 00:42:29;;;;;;;4.65;0.80;;;;;;;12.54;100.00;95080.97;1027971;28;20105;-49
2021/05/11 00:43:00;;;;;;;2.67;0.60;;;;;;;12.58;100.00;95077.06;1027930;28;20023;-49
2021/05/11 00:43:31;;;;;;;1.77;0.70;;;;;;;12.55;100.00;95084.41;1027829;28;20039;-51
2021/05/11 00:44:02;;;;;;;1.08;0.55;;;;;;;12.53;100.00;95079.28;1031873;28;20022;-49
2021/05/11 00:44:33;;;;;;;1.85;0.60;;;;;;;12.52;100.00;95095.19;1036026;28;20302;-49
2021/05/11 00:45:05;;;;;;;1.27;0.73;;;;;;;12.47;100.00;95085.13;1031911;28;20022;-50
2021/05/11 00:45:36;;;;;;;2.22;0.50;;;;;;;12.48;100.00;95092.03;1027903;28;20444;-50
2021/05/11 00:46:07;;;;;;;0.68;0.60;;;;;;;12.47;100.00;95090.38;1027993;28;20026;-49
2021/05/11 00:46:38;;;;;;;1.63;0.88;;;;;;;12.46;100.00;95091.34;1027997;28;20022;-49
2021/05/11 00:47:09;;;;;;;0.98;0.60;;;;;;;12.47;100.00;95084.31;1027970;28;20027;-48
2021/05/11 00:47:40;;;;;;;0.68;0.50;;;;;;;12.47;100.00;95079.88;1027944;28;20029;-48
2021/05/11 00:48:11;;;;;;;2.00;0.75;;;;;;;12.49;100.00;95077.94;1027923;28;20086;-48
2021/05/11 00:48:42;;;;;;;0.57;0.47;;;;;;;12.50;100.00;95070.88;1031898;28;20061;-49
2021/05/11 00:49:13;;;;;;;1.60;0.80;;;;;;;12.51;100.00;95062.84;1035999;28;20022;-50
2021/05/11 00:49:44;;;;;;;1.23;0.60;;;;;;;12.50;100.00;95070.88;1027918;28;20023;-48
2021/05/11 00:50:15;;;;;;;1.80;0.60;;;;;;;12.46;100.00;95067.69;1027888;28;20397;-47
2021/05/11 00:50:46;;;;;;;1.65;0.70;;;;;;;12.40;100.00;95076.13;1032074;28;20025;-48
2021/05/11 00:51:17;;;;;;;1.48;0.70;;;;;;;12.39;100.00;95075.31;1027755;28;20078;-48
2021/05/11 00:51:49;;;;;;;2.67;0.80;;;;;;;12.41;100.00;95075.19;1027991;28;20081;-50
2021/05/11 00:52:20;;;;;;;1.05;0.60;;;;;;;12.40;100.00;95084.03;1031896;28;20026;-48
2021/05/11 00:52:51;;;;;;;2.55;0.70;;;;;;;12.36;100.00;95082.66;1027990;28;20560;-48
2021/05/11 00:53:22;;;;;;;1.75;0.85;;;;;;;12.37;100.00;95084.28;1027890;28;20473;-50
2021/05/11 00:53:53;;;;;;;1.30;0.60;;;;;;;12.36;100.00;95080.84;1027672;28;20018;-48
2021/05/11 00:54:25;;;;;;;1.55;0.90;;;;;;;12.35;100.00;95081.81;1031835;28;20566;-48
2021/05/11 00:54:56;;;;;;;1.33;0.70;;;;;;;12.33;100.00;95073.25;1027854;28;20041;-49
2021/05/11 00:55:28;;;;;;;1.88;0.70;;;;;;;12.34;100.00;95074.91;1023965;28;20560;-47
2021/05/11 00:56:00;;;;;;;1.40;0.60;;;;;;;12.36;100.00;95067.72;1027901;28;20143;-47
2021/05/11 00:56:31;;;;;;;1.08;0.68;;;;;;;12.32;100.00;95065.50;1023871;29;20038;-49
2021/05/11 00:57:03;;;;;;;1.20;0.70;;;;;;;12.31;100.00;95062.03;1027975;28;20023;-48
2021/05/11 00:57:35;;;;;;;1.23;0.73;;;;;;;12.33;100.00;95064.53;1027892;28;20110;-48
2021/05/11 00:58:06;;;;;;;0.95;0.60;;;;;;;12.30;100.00;95062.22;1027967;28;20027;-48
2021/05/11 00:58:38;;;;;;;1.40;0.70;;;;;;;12.30;100.00;95068.28;1035893;28;20033;-50
2021/05/11 00:59:16;;;;;;;1.58;0.75;;;;;;;12.30;100.00;95064.84;1035996;28;20026;-48
2021/05/11 00:59:47;;;;;;;3.05;0.80;;;;;;;12.28;100.00;95066.78;1027949;28;20507;-48
2021/05/11 01:00:19;;;;;;;1.73;0.80;;;;;;;12.25;100.00;95066.06;1040062;28;20020;-50
2021/05/11 01:00:50;;;;;;;1.40;0.65;;;;;;;12.24;100.00;95067.03;1024011;28;20058;-49
2021/05/11 01:01:21;;;;;;;3.60;0.70;;;;;;;12.22;100.00;95055.84;1033518;28;20081;-47
2021/05/11 01:01:53;;;;;;;3.63;0.60;;;;;;;12.25;100.00;95060.81;1030344;28;20091;-49
2021/05/11 01:02:24;;;;;;;1.02;0.65;;;;;;;12.27;100.00;95058.03;1029493;28;20053;-49
2021/05/11 01:02:55;;;;;;;0.88;0.70;;;;;;;12.23;100.00;95052.25;1035290;28;20022;-48
2021/05/11 01:03:26;;;;;;;1.33;0.88;;;;;;;12.22;100.00;95050.59;1031142;28;20019;-49
2021/05/11 01:03:57;;;;;;;1.30;0.70;;;;;;;12.23;100.00;95056.66;1031414;28;20023;-48
2021/05/11 01:04:28;;;;;;;2.08;0.80;;;;;;;12.26;100.00;95053.78;1034074;28;20076;-51
2021/05/11 01:05:00;;;;;;;1.58;0.73;;;;;;;12.26;100.00;95051.16;1031257;28;20023;-48
2021/05/11 01:05:31;;;;;;;1.95;0.88;;;;;;;12.27;100.00;95052.78;1043593;28;20020;-50
2021/05/11 01:06:02;;;;;;;1.23;0.60;;;;;;;12.28;100.00;95058.88;1039495;28;20014;-48
2021/05/11 01:06:33;;;;;;;1.13;0.73;;;;;;;12.25;100.00;95059.97;1030694;28;20034;-50
2021/05/11 01:07:04;;;;;;;1.23;0.70;;;;;;;12.25;100.00;95063.44;1027330;28;20022;-50
2021/05/11 01:07:35;;;;;;;1.13;0.70;;;;;;;12.27;100.00;95065.09;1027236;28;20417;-50
2021/05/11 01:08:06;;;;;;;1.20;0.68;;;;;;;12.23;100.00;95073.25;1027519;29;20019;-49
2021/05/11 01:08:37;;;;;;;2.05;0.60;;;;;;;12.23;100.00;95075.06;1030279;28;20023;-48
2021/05/11 01:09:08;;;;;;;1.60;0.60;;;;;;;12.23;100.00;95073.25;1035997;28;20040;-51
2021/05/11 01:09:39;;;;;;;0.98;0.60;;;;;;;12.21;100.00;95067.31;1031825;28;20025;-48
2021/05/11 01:10:11;;;;;;;1.00;0.70;;;;;;;12.21;100.00;95075.19;1032019;28;20420;-49
2021/05/11 01:10:42;;;;;;;1.73;0.80;;;;;;;12.19;100.00;95065.81;1027749;28;20014;-49
2021/05/11 01:11:14;;;;;;;2.25;0.80;;;;;;;12.17;100.00;95076.44;1027704;28;20026;-48
2021/05/11 01:11:46;;;;;;;1.33;0.80;;;;;;;12.18;100.00;95064.13;1035874;28;20531;-48
2021/05/11 01:12:17;;;;;;;1.80;0.60;;;;;;;12.16;100.00;95066.06;1035798;28;20404;-48
2021/05/11 01:12:48;;;;;;;2.50;0.88;;;;;;;12.14;100.00;95062.75;1027733;28;20019;-48
2021/05/11 01:13:19;;;;;;;2.00;0.80;;;;;;;12.10;100.00;95067.47;1027866;28;20101;-50
2021/05/11 01:13:51;;;;;;;1.40;0.80;;;;;;;12.09;100.00;95064.97;1027698;28;20588;-49
2021/05/11 01:14:25;;;;;;;2.03;0.73;;;;;;;12.11;100.00;95061.25;1027774;28;20484;-48
2021/05/11 01:14:56;;;;;;;1.25;0.70;;;;;;;12.09;100.00;95065.81;1027698;28;20011;-49
2021/05/11 01:15:27;;;;;;;1.52;0.70;;;;;;;12.08;100.00;95068.56;1031836;28;20053;-47
2021/05/11 01:15:58;;;;;;;1.83;0.80;;;;;;;12.03;100.00;95066.34;1027785;28;20026;-50
2021/05/11 01:16:31;;;;;;;1.15;0.70;;;;;;;12.02;100.00;95059.47;1027846;28;20113;-48
2021/05/11 01:17:03;;;;;;;1.33;0.80;;;;;;;12.05;100.00;95062.63;1035866;28;20014;-47
2021/05/11 01:17:37;;;;;;;1.27;0.75;;;;;;;12.07;100.00;95062.50;1035919;28;20393;-49
2021/05/11 01:18:13;;;;;;;6.45;0.73;;;;;;;12.10;100.00;95054.31;1031775;28;20022;-50
2021/05/11 01:18:48;;;;;;;1.30;0.75;;;;;;;12.13;100.00;95045.38;1027758;28;20023;-49
2021/05/11 01:19:54;;;;;;;1.55;0.70;;;;;;;12.11;100.00;95042.88;1031898;28;20496;-48
2021/05/11 01:20:30;;;;;;;2.15;0.80;;;;;;;12.11;100.00;95036.78;1031840;28;20022;-49
2021/05/11 01:21:18;;;;;;;1.38;0.60;;;;;;;12.09;100.00;95039.56;1027603;28;20105;-48
2021/05/11 01:22:06;;;;;;;1.90;0.80;;;;;;;12.15;100.00;95035.53;1032062;28;20038;-49
2021/05/11 01:24:04;;;;;;;2.47;0.75;;;;;;;11.99;100.00;95030.84;1027599;28;20030;-49
2021/05/11 01:24:38;;;;;;;2.00;0.80;;;;;;;11.97;100.00;95030.97;1031776;28;20022;-48
2021/05/11 01:25:17;;;;;;;1.42;0.80;;;;;;;11.98;100.00;95039.69;1031798;28;20026;-49
2021/05/11 01:25:51;;;;;;;1.38;0.70;;;;;;;11.96;100.00;95039.84;1031886;28;20102;-49
2021/05/11 01:26:28;;;;;;;1.15;0.70;;;;;;;11.95;100.00;95043.41;1035979;28;20025;-47
2021/05/11 01:27:07;;;;;;;1.77;0.80;;;;;;;11.94;100.00;95041.78;1031887;28;20026;-48
2021/05/11 01:28:28;;;;;;;0.75;0.50;;;;;;;11.90;100.00;95047.41;1031803;28;20258;-47
2021/05/11 01:29:46;;;;;;;1.40;0.80;;;;;;;11.86;100.00;95041.59;1027803;28;20027;-49
2021/05/11 01:30:40;;;;;;;2.15;0.88;;;;;;;11.83;100.00;95053.19;1027797;28;20022;-47
2021/05/11 01:48:35;;;;;;;7.00;0.80;;;;;;;11.46;100.00;95029.41;1031905;28;20147;-51
2021/05/11 01:49:24;;;;;;;1.70;0.90;;;;;;;11.48;100.00;95030.94;1031774;28;20254;-49
2021/05/11 01:52:50;;;;;;;1.48;0.80;;;;;;;11.37;100.00;95017.13;1031578;28;20014;-50
2021/05/11 01:58:52;;;;;;;1.85;0.82;;;;;;;11.22;100.00;95009.66;1027614;28;20015;-51
2021/05/11 02:22:35;;;;;;;1.70;0.90;;;;;;;11.21;100.00;94986.19;1031714;28;20391;-50
2021/05/11 02:22:48;;;;;;;4.07;0.90;;;;;;;11.04;100.00;95006.84;1027676;28;20801;-51
2021/05/11 02:23:19;;;;;;;1.70;0.80;;;;;;;11.02;100.00;95002.72;1031492;28;20391;-50
2021/05/11 02:23:50;;;;;;;1.05;0.80;;;;;;;11.01;100.00;95001.03;1027237;28;20319;-51
2021/05/11 02:24:21;;;;;;;3.17;0.90;;;;;;;10.98;100.00;94996.06;1027601;28;20051;-50
2021/05/11 02:24:52;;;;;;;1.80;0.90;;;;;;;11.03;100.00;95005.16;1031766;28;20014;-49
2021/05/11 02:25:23;;;;;;;2.45;1.20;;;;;;;11.06;100.00;95006.72;1023680;28;20021;-50
2021/05/11 02:25:54;;;;;;;2.30;0.90;;;;;;;11.05;100.00;95003.25;1031490;28;20646;-48
2021/05/11 02:26:26;;;;;;;3.83;0.90;;;;;;;11.08;100.00;95010.84;1027660;28;20049;-50
2021/05/11 02:26:57;;;;;;;1.52;0.80;;;;;;;11.10;100.00;95015.97;1031522;28;20050;-50
2021/05/11 02:27:28;;;;;;;1.23;0.75;;;;;;;11.12;100.00;95010.59;1027478;28;20262;-47
2021/05/11 02:27:59;;;;;;;1.30;0.90;;;;;;;11.15;100.00;95007.69;1035459;28;20442;-50
2021/05/11 02:28:30;;;;;;;2.92;1.15;;;;;;;11.19;100.00;95014.34;1031560;28;20343;-50
2021/05/11 02:29:01;;;;;;;1.30;0.80;;;;;;;11.17;100.00;95006.59;1031531;28;20250;-51
2021/05/11 02:29:32;;;;;;;1.40;0.90;;;;;;;11.18;100.00;95012.66;1031647;28;20253;-50
2021/05/11 02:30:05;;;;;;;5.38;1.00;;;;;;;11.18;100.00;95012.66;1031505;28;20441;-51
2021/05/11 02:30:36;;;;;;;1.55;0.80;;;;;;;11.17;100.00;95016.28;1023721;28;20103;-49
2021/05/11 02:31:07;;;;;;;1.42;0.77;;;;;;;11.16;100.00;95019.84;1031468;28;20459;-48
2021/05/11 02:31:38;;;;;;;1.65;0.85;;;;;;;11.18;100.00;95015.28;1027592;28;20121;-51
2021/05/11 02:32:09;;;;;;;1.77;0.90;;;;;;;11.19;100.00;95011.72;1023486;28;20038;-49
2021/05/11 02:32:41;;;;;;;1.35;0.70;;;;;;;11.19;100.00;95016.97;1023581;29;20023;-47
2021/05/11 02:33:12;;;;;;;3.85;0.80;;;;;;;11.17;100.00;95011.03;1027542;28;20254;-48
2021/05/11 02:33:43;;;;;;;2.22;0.90;;;;;;;11.22;100.00;95016.66;1027372;28;20015;-49
2021/05/11 02:34:14;;;;;;;3.78;0.85;;;;;;;11.22;100.00;95020.16;1027468;28;20022;-49
2021/05/11 02:34:45;;;;;;;2.15;1.00;;;;;;;11.22;100.00;95019.28;1031596;28;20021;-51
2021/05/11 02:35:17;;;;;;;1.88;0.90;;;;;;;11.26;100.00;95015.44;1027524;28;20019;-49
2021/05/11 02:35:48;;;;;;;1.30;0.70;;;;;;;11.26;100.00;95025.91;1035639;28;20061;-50
2021/05/11 02:36:19;;;;;;;1.77;0.70;;;;;;;11.25;100.00;95019.84;1031540;28;20029;-49
2021/05/11 02:36:50;;;;;;;1.90;1.00;;;;;;;11.25;100.00;95009.38;1031581;28;20053;-48
2021/05/11 02:37:21;;;;;;;1.55;0.80;;;;;;;11.32;100.00;95009.66;1027578;28;20019;-48
2021/05/11 02:37:52;;;;;;;1.67;0.77;;;;;;;11.18;100.00;94986.44;1023616;29;20028;-49
2021/05/11 02:38:24;;;;;;;3.72;0.90;;;;;;;11.26;100.00;95004.94;1023481;28;20023;-48
2021/05/11 02:38:55;;;;;;;4.22;0.98;;;;;;;11.28;100.00;95010.91;1031516;28;20116;-49
2021/05/11 02:39:26;;;;;;;2.40;1.08;;;;;;;11.27;100.00;95007.44;1031545;28;20106;-49
2021/05/11 02:39:57;;;;;;;2.15;0.88;;;;;;;11.25;100.00;95006.75;1031560;28;20451;-48
2021/05/11 02:40:28;;;;;;;6.50;1.27;;;;;;;11.20;100.00;95008.94;1027427;28;20596;-48
2021/05/11 02:40:59;;;;;;;1.77;0.90;;;;;;;11.14;100.00;95009.47;1027624;28;20018;-50
2021/05/11 02:41:30;;;;;;;2.05;1.08;;;;;;;11.12;100.00;95008.78;1031614;28;20018;-50
2021/05/11 02:42:01;;;;;;;2.05;0.80;;;;;;;11.18;100.00;95002.19;1035545;28;20507;-48
2021/05/11 02:42:32;;;;;;;2.42;1.00;;;;;;;11.14;100.00;95003.41;1031471;28;20022;-49
2021/05/11 02:43:07;;;;;;;2.00;0.90;;;;;;;11.14;100.00;95003.41;1027495;28;20110;-49
2021/05/11 02:43:39;;;;;;;1.75;0.90;;;;;;;11.16;100.00;95004.09;1031385;28;20468;-47
2021/05/11 02:44:10;;;;;;;2.60;0.80;;;;;;;11.18;100.00;95007.41;1035677;28;20788;-49
2021/05/11 02:44:44;;;;;;;2.20;1.00;;;;;;;11.22;100.00;95000.94;1031481;28;20325;-49
2021/05/11 02:45:16;;;;;;;7.72;1.02;;;;;;;11.25;100.00;95003.31;1027425;28;20022;-48
2021/05/11 02:45:47;;;;;;;3.00;0.90;;;;;;;11.21;100.00;95001.91;1031631;28;20276;-51
2021/05/11 02:46:18;;;;;;;1.55;0.93;;;;;;;11.20;100.00;95003.69;1031560;28;20018;-49
2021/05/11 02:46:49;;;;;;;2.28;1.02;;;;;;;11.19;100.00;95009.91;1023514;28;20298;-50
2021/05/11 02:47:20;;;;;;;1.33;0.90;;;;;;;11.21;100.00;95007.97;1031455;28;20018;-48
2021/05/11 02:47:51;;;;;;;1.10;0.70;;;;;;;11.18;100.00;95002.19;1031556;28;20495;-48
2021/05/11 02:48:22;;;;;;;2.83;0.90;;;;;;;11.16;100.00;94991.81;1027514;28;20023;-48
2021/05/11 02:48:56;;;;;;;1.33;0.80;;;;;;;11.24;100.00;95001.63;1031529;28;20018;-47
2021/05/11 02:49:27;;;;;;;1.85;0.90;;;;;;;11.25;100.00;94995.44;1032375;28;20038;-50
2021/05/11 02:50:04;;;;;;;1.40;0.70;;;;;;;11.29;100.00;94997.63;1024409;28;20421;-49
2021/05/11 02:50:36;;;;;;;1.52;0.80;;;;;;;11.32;100.00;94986.06;1024437;28;20051;-50
2021/05/11 02:51:06;;;;;;;1.75;0.98;;;;;;;11.33;100.00;94977.22;1028249;28;20457;-48
2021/05/11 02:51:37;;;;;;;2.00;0.90;;;;;;;11.25;100.00;94983.16;1028360;28;20015;-49
2021/05/11 02:52:08;;;;;;;2.15;0.95;;;;;;;11.18;100.00;94974.16;1028377;28;20022;-49
2021/05/11 02:52:39;;;;;;;2.05;0.80;;;;;;;11.12;100.00;94977.34;1032349;28;20022;-49
2021/05/11 02:53:10;;;;;;;1.83;0.93;;;;;;;11.07;100.00;94980.38;1028330;28;20023;-51
2021/05/11 02:53:41;;;;;;;2.92;1.00;;;;;;;11.07;100.00;94975.13;1028096;28;20062;-49
2021/05/11 02:54:12;;;;;;;1.33;0.80;;;;;;;11.05;100.00;94984.06;1028325;28;20022;-49
2021/05/11 02:54:43;;;;;;;1.63;0.80;;;;;;;11.03;100.00;94980.75;1024424;28;20030;-48
2021/05/11 02:55:15;;;;;;;1.80;0.75;;;;;;;11.11;100.00;94982.69;1024201;29;20517;-49
2021/05/11 02:55:46;;;;;;;1.80;0.90;;;;;;;11.14;100.00;94982.44;1028295;28;20019;-48
2021/05/11 02:56:17;;;;;;;3.00;1.00;;;;;;;11.14;100.00;94995.56;1028310;28;20022;-50
2021/05/11 02:56:48;;;;;;;2.88;0.80;;;;;;;11.13;100.00;94989.50;1028233;28;20462;-50
2021/05/11 02:57:19;;;;;;;1.33;0.80;;;;;;;11.10;100.00;94989.75;1024280;28;20097;-49
2021/05/11 02:57:51;;;;;;;1.65;0.90;;;;;;;11.11;100.00;94990.56;1032306;28;20105;-49
2021/05/11 02:58:23;;;;;;;1.60;0.90;;;;;;;11.12;100.00;94987.81;1028310;28;20023;-49
2021/05/11 02:58:54;;;;;;;1.38;0.80;;;;;;;11.15;100.00;94989.31;1028230;28;20027;-49
2021/05/11 02:59:25;;;;;;;2.45;0.75;;;;;;;11.09;100.00;94985.44;1028214;28;20066;-48
2021/05/11 02:59:56;;;;;;;1.70;0.80;;;;;;;11.08;100.00;94991.69;1028250;28;20074;-48
2021/05/11 03:00:27;;;;;;;3.05;0.82;;;;;;;11.08;100.00;94986.44;1032291;28;20022;-49
2021/05/11 03:00:58;;;;;;;1.33;0.90;;;;;;;11.08;100.00;94989.88;1032217;28;20096;-50
2021/05/11 03:01:29;;;;;;;1.92;0.80;;;;;;;11.11;100.00;94982.69;1032293;28;20516;-49
2021/05/11 03:02:01;;;;;;;3.35;1.00;;;;;;;11.09;100.00;94988.06;1024225;28;20482;-49
2021/05/11 03:02:32;;;;;;;1.98;0.90;;;;;;;11.09;100.00;94991.53;1028001;28;20023;-49
2021/05/11 03:03:03;;;;;;;1.55;0.70;;;;;;;11.13;100.00;94986.00;1024277;28;20016;-49
2021/05/11 03:03:34;;;;;;;2.40;0.80;;;;;;;11.15;100.00;94984.94;1032122;28;20018;-48
2021/05/11 03:04:05;;;;;;;2.42;0.82;;;;;;;11.15;100.00;94984.94;1028251;28;20018;-50
2021/05/11 03:04:36;;;;;;;1.02;0.70;;;;;;;11.21;100.00;94991.44;1032325;28;20019;-49
2021/05/11 03:05:08;;;;;;;1.15;0.70;;;;;;;11.23;100.00;94986.88;1032315;28;20011;-49
2021/05/11 03:05:41;;;;;;;2.17;0.90;;;;;;;11.20;100.00;94980.09;1028256;28;20030;-50
2021/05/11 03:06:12;;;;;;;3.25;0.90;;;;;;;11.22;100.00;94985.19;1032213;28;20366;-50
2021/05/11 03:06:43;;;;;;;1.92;0.90;;;;;;;11.19;100.00;94977.63;1024326;28;20015;-48
2021/05/11 03:07:14;;;;;;;1.33;0.75;;;;;;;11.17;100.00;94984.81;1032253;28;20018;-49
2021/05/11 03:07:45;;;;;;;1.60;0.80;;;;;;;11.17;100.00;94987.44;1032262;28;20515;-49
2021/05/11 03:08:16;;;;;;;2.92;0.80;;;;;;;11.14;100.00;94982.44;1036359;28;20013;-51
2021/05/11 03:08:47;;;;;;;3.45;0.82;;;;;;;11.11;100.00;94980.06;1032339;28;20014;-48
2021/05/11 03:09:18;;;;;;;2.30;0.90;;;;;;;11.08;100.00;94984.63;1032426;28;20017;-48
2021/05/11 03:09:49;;;;;;;1.77;0.98;;;;;;;11.11;100.00;94982.69;1024245;29;20019;-48
2021/05/11 03:10:20;;;;;;;1.40;0.90;;;;;;;11.14;100.00;94982.44;1024180;29;20047;-50
2021/05/11 03:10:52;;;;;;;1.63;0.80;;;;;;;11.14;100.00;94987.69;1032235;28;20849;-48
2021/05/11 03:11:23;;;;;;;1.92;0.90;;;;;;;11.12;100.00;94985.19;1028173;28;20049;-49
2021/05/11 03:11:55;;;;;;;4.63;1.10;;;;;;;11.10;100.00;94984.50;1028083;28;20098;-48
2021/05/11 03:12:26;;;;;;;1.45;0.80;;;;;;;11.05;100.00;94982.28;1032223;28;20261;-49
2021/05/11 03:12:57;;;;;;;4.07;0.90;;;;;;;11.02;100.00;94979.94;1028295;28;20418;-50
2021/05/11 03:13:28;;;;;;;2.80;1.00;;;;;;;10.97;100.00;94984.75;1032122;28;20258;-49
2021/05/11 03:13:59;;;;;;;3.25;0.95;;;;;;;10.98;100.00;94991.66;1032075;28;20018;-48
2021/05/11 03:14:33;;;;;;;1.92;0.82;;;;;;;10.98;100.00;94983.78;1032256;28;20485;-48
2021/05/11 03:15:05;;;;;;;1.95;1.00;;;;;;;10.90;100.00;94978.38;1032275;28;20015;-49
2021/05/11 03:15:36;;;;;;;2.53;1.17;;;;;;;10.91;100.00;94984.47;1033243;28;20010;-49
2021/05/11 03:16:08;;;;;;;2.50;0.90;;;;;;;10.93;100.00;94988.59;1028270;28;20737;-50
2021/05/11 03:16:38;;;;;;;2.80;1.15;;;;;;;10.86;100.00;94980.44;1040403;28;20064;-48
2021/05/11 03:17:09;;;;;;;1.77;0.95;;;;;;;10.88;100.00;94990.78;1028279;28;20342;-48
2021/05/11 03:17:40;;;;;;;1.25;0.80;;;;;;;10.86;100.00;94993.53;1024224;28;20011;-52
2021/05/11 03:18:11;;;;;;;3.25;1.05;;;;;;;10.90;100.00;94994.09;1032168;28;20037;-49
2021/05/11 03:18:44;;;;;;;3.05;0.90;;;;;;;10.91;100.00;94998.38;1028278;28;20361;-49
2021/05/11 03:19:15;;;;;;;2.40;1.00;;;;;;;10.96;100.00;95000.59;1028164;28;20015;-49
2021/05/11 03:19:46;;;;;;;4.38;1.02;;;;;;;10.96;100.00;94997.97;1024170;28;20270;-48